Time;durP1;ratioP1;P1;durP2;ratioP2;P2;SDS_P1;SDS_P2;PMS_P1;PMS_P2;Temp;Humidity;BMP_temperature;BMP_pressure;BME280_temperature;BME280_humidity;BME280_pressure;Samples;Min_cycle;Max_cycle;Signal;HPM_P1;HPM_P2
2022/06/29 00:01:50;;;;;;;3.85;1.02;;;;;;;15.78;49.77;100588.28;5116955;28;20036;-46
2022/06/29 00:04:18;;;;;;;2.70;1.40;;;;;;;15.83;49.15;100586.56;5116094;28;20371;-45
2022/06/29 00:06:44;;;;;;;5.75;1.35;;;;;;;15.87;48.88;100589.63;5115970;28;20031;-45
2022/06/29 00:09:10;;;;;;;3.50;1.00;;;;;;;15.91;48.55;100580.00;5114897;28;20039;-45
2022/06/29 00:11:36;;;;;;;4.30;1.20;;;;;;;15.92;48.89;100581.66;5115314;28;20031;-46
2022/06/29 00:14:01;;;;;;;4.18;1.40;;;;;;;15.76;49.29;100560.59;5115728;28;20111;-46
2022/06/29 00:16:27;;;;;;;3.83;1.15;;;;;;;15.82;48.79;100568.66;5114056;28;20114;-45
2022/06/29 00:18:53;;;;;;;6.70;1.77;;;;;;;15.73;49.14;100561.00;5115450;28;20365;-45
2022/06/29 00:21:18;;;;;;;5.15;1.60;;;;;;;15.78;49.13;100555.78;5117875;28;20032;-46
2022/06/29 00:23:45;;;;;;;3.42;1.10;;;;;;;15.76;49.57;100560.59;5116417;28;20031;-48
2022/06/29 00:26:11;;;;;;;2.70;1.00;;;;;;;15.66;49.09;100547.56;5118229;28;20027;-46
2022/06/29 00:28:36;;;;;;;5.43;1.10;;;;;;;15.67;49.36;100557.31;5099990;28;20034;-45
2022/06/29 00:31:02;;;;;;;2.33;0.85;;;;;;;15.68;49.00;100542.75;5116656;28;20023;-45
2022/06/29 00:33:28;;;;;;;6.03;1.60;;;;;;;15.75;49.02;100556.22;5115893;28;20036;-45
2022/06/29 00:35:54;;;;;;;5.40;1.70;;;;;;;15.62;49.53;100549.03;5113172;28;20032;-46
2022/06/29 00:38:19;;;;;;;3.72;1.40;;;;;;;15.70;49.19;100551.47;5111185;28;20431;-45
2022/06/29 00:40:45;;;;;;;7.68;1.50;;;;;;;15.74;48.98;100546.47;5112538;28;20133;-44
2022/06/29 00:43:11;;;;;;;4.38;1.38;;;;;;;15.73;49.32;100552.88;5112159;28;20172;-47
2022/06/29 00:45:37;;;;;;;5.18;1.30;;;;;;;15.71;49.13;100541.47;5112152;28;20069;-49
2022/06/29 00:48:04;;;;;;;3.47;1.08;;;;;;;15.72;49.52;100553.97;5110771;28;20028;-45
2022/06/29 00:50:32;;;;;;;3.60;1.10;;;;;;;15.69;49.58;100549.81;5110554;28;20039;-45
2022/06/29 00:53:03;;;;;;;4.78;1.20;;;;;;;15.68;49.74;100546.28;5112469;28;20027;-45
2022/06/29 00:55:31;;;;;;;6.43;1.50;;;;;;;15.70;49.91;100548.75;5112318;28;20360;-45
2022/06/29 00:58:00;;;;;;;4.30;1.17;;;;;;;15.56;50.25;100539.94;5111819;27;20035;-45
2022/06/29 01:00:26;;;;;;;5.00;1.35;;;;;;;15.66;49.72;100545.69;5111957;28;20032;-44
2022/06/29 01:02:52;;;;;;;4.03;1.38;;;;;;;15.66;49.87;100550.28;5110118;28;20038;-44
2022/06/29 01:05:18;;;;;;;3.20;1.42;;;;;;;15.65;50.43;100554.03;5112050;28;20028;-44
2022/06/29 01:07:45;;;;;;;5.30;1.40;;;;;;;15.65;50.25;100545.91;5111348;28;20049;-46
2022/06/29 01:10:11;;;;;;;3.28;1.45;;;;;;;15.64;50.21;100546.97;5113179;28;20043;-45
2022/06/29 01:12:36;;;;;;;4.82;1.10;;;;;;;15.54;50.79;100547.47;5114588;28;20031;-50
2022/06/29 01:15:03;;;;;;;3.45;1.23;;;;;;;15.56;50.34;100550.78;5114601;28;20079;-48
2022/06/29 01:17:28;;;;;;;8.48;1.48;;;;;;;15.61;50.19;100548.22;5112917;28;20486;-47
2022/06/29 01:19:54;;;;;;;8.23;1.63;;;;;;;15.53;50.71;100553.94;5111790;28;20036;-45
2022/06/29 01:22:22;;;;;;;8.13;1.23;;;;;;;15.52;50.56;100544.16;5111891;28;20034;-45
2022/06/29 01:24:49;;;;;;;7.28;1.42;;;;;;;15.42;51.16;100538.44;5109960;28;20043;-46
2022/06/29 01:27:17;;;;;;;2.85;1.23;;;;;;;15.46;51.01;100554.00;5109980;28;20031;-45
2022/06/29 01:29:43;;;;;;;4.22;1.42;;;;;;;15.43;51.06;100553.63;5111525;28;20440;-45
2022/06/29 01:32:09;;;;;;;4.32;1.40;;;;;;;15.48;51.02;100559.19;5111769;28;20360;-45
2022/06/29 01:34:36;;;;;;;5.38;1.50;;;;;;;15.36;51.08;100536.63;5112608;28;20077;-46
2022/06/29 01:37:04;;;;;;;3.25;1.35;;;;;;;15.49;51.16;100563.56;5110900;28;20027;-45
2022/06/29 01:39:30;;;;;;;6.88;1.80;;;;;;;15.38;51.45;100551.59;5111574;28;20131;-44
2022/06/29 01:41:56;;;;;;;3.03;1.35;;;;;;;15.39;51.42;100555.94;5112044;28;20104;-44
2022/06/29 01:44:22;;;;;;;6.10;1.55;;;;;;;15.43;51.23;100550.91;5110987;28;20028;-45
2022/06/29 01:46:48;;;;;;;4.20;1.33;;;;;;;15.35;51.35;100537.69;5113066;28;20027;-44
2022/06/29 01:49:14;;;;;;;5.65;1.52;;;;;;;15.34;51.76;100544.13;5115723;28;20059;-44
2022/06/29 01:51:40;;;;;;;2.70;1.08;;;;;;;15.31;51.75;100541.91;5115850;28;20108;-44
2022/06/29 01:54:07;;;;;;;2.63;1.30;;;;;;;15.39;52.12;100555.13;5116082;28;20387;-44
2022/06/29 01:56:33;;;;;;;5.32;1.70;;;;;;;15.37;51.93;100555.34;5116158;27;20060;-44
2022/06/29 01:58:59;;;;;;;3.58;1.50;;;;;;;15.10;52.86;100525.84;5115863;28;20432;-45
2022/06/29 02:01:24;;;;;;;6.55;1.42;;;;;;;15.22;52.26;100533.22;5115924;28;20161;-44
2022/06/29 02:03:51;;;;;;;10.73;2.13;;;;;;;15.20;52.81;100535.34;5115649;28;20028;-44
2022/06/29 02:06:18;;;;;;;2.17;0.90;;;;;;;15.21;51.98;100532.41;5114408;28;20513;-45
2022/06/29 02:08:44;;;;;;;3.40;1.00;;;;;;;15.21;52.30;100535.13;5115043;28;20379;-45
2022/06/29 02:11:10;;;;;;;3.47;1.25;;;;;;;15.21;52.46;100539.69;5113832;28;20044;-44
2022/06/29 02:13:36;;;;;;;6.82;1.70;;;;;;;15.15;52.87;100525.16;5113793;28;20102;-46
2022/06/29 02:16:02;;;;;;;3.97;1.58;;;;;;;15.21;53.13;100534.25;5098119;28;20019;-45
2022/06/29 02:18:27;;;;;;;5.60;1.70;;;;;;;15.13;53.56;100529.16;5115593;28;20462;-44
2022/06/29 02:20:53;;;;;;;3.33;1.45;;;;;;;15.10;52.88;100528.56;5115188;27;20067;-44
2022/06/29 02:23:20;;;;;;;4.05;1.45;;;;;;;15.16;53.08;100529.53;5113990;28;20062;-45
2022/06/29 02:25:47;;;;;;;5.15;1.38;;;;;;;15.11;53.67;100529.38;5115269;28;20040;-46
2022/06/29 02:28:13;;;;;;;2.97;1.30;;;;;;;15.15;53.17;100532.47;5096905;28;20464;-44
2022/06/29 02:36:10;;;;;;;6.07;1.33;;;;;;;15.14;53.60;100531.63;5113761;28;20062;-44
2022/06/29 02:38:36;;;;;;;7.40;2.30;;;;;;;15.05;54.08;100524.84;5114614;28;20028;-44
2022/06/29 02:41:02;;;;;;;4.70;1.60;;;;;;;15.07;53.76;100522.75;5113187;28;20042;-47
2022/06/29 02:43:27;;;;;;;3.75;1.40;;;;;;;15.02;54.28;100531.50;5114528;28;20081;-43
2022/06/29 02:45:53;;;;;;;5.13;1.30;;;;;;;14.97;54.51;100527.81;5114949;28;20028;-45
2022/06/29 02:48:19;;;;;;;4.63;1.50;;;;;;;14.93;54.24;100516.63;5096920;28;20023;-44
2022/06/29 02:50:45;;;;;;;5.68;2.35;;;;;;;15.04;53.85;100526.75;5113488;28;20034;-44
2022/06/29 02:53:11;;;;;;;2.42;1.10;;;;;;;15.06;53.81;100526.50;5114475;28;20031;-45
2022/06/29 02:55:36;;;;;;;3.65;1.35;;;;;;;15.06;54.56;100515.69;5096717;28;20039;-46
2022/06/29 02:58:02;;;;;;;3.83;1.40;;;;;;;15.00;54.43;100506.56;5113187;28;20129;-49
2022/06/29 03:00:28;;;;;;;4.75;1.35;;;;;;;14.83;54.77;100476.56;5113220;28;20043;-50
2022/06/29 03:02:54;;;;;;;4.18;1.40;;;;;;;15.05;54.61;100509.44;5114933;28;20085;-44
2022/06/29 03:05:20;;;;;;;8.13;1.52;;;;;;;14.87;54.82;100488.59;5114564;28;20149;-47
2022/06/29 03:07:45;;;;;;;4.55;1.30;;;;;;;14.99;55.15;100496.81;5114024;28;20140;-44
2022/06/29 03:10:11;;;;;;;4.38;1.20;;;;;;;14.97;54.70;100498.91;5116159;28;20165;-45
2022/06/29 03:12:37;;;;;;;5.72;1.75;;;;;;;14.88;55.16;100478.63;5114566;28;20031;-44
2022/06/29 03:15:04;;;;;;;6.32;1.25;;;;;;;14.97;54.73;100482.69;5114045;28;20031;-44
2022/06/29 03:17:30;;;;;;;5.25;1.38;;;;;;;14.84;55.40;100455.75;5113097;28;20148;-45
2022/06/29 03:19:56;;;;;;;5.70;1.63;;;;;;;14.96;55.04;100481.03;5112526;28;20122;-44
2022/06/29 03:22:21;;;;;;;6.75;1.30;;;;;;;14.95;55.03;100473.97;5113907;28;20032;-45
2022/06/29 03:24:47;;;;;;;4.57;1.77;;;;;;;14.85;56.14;100457.41;5095675;28;20032;-45
2022/06/29 03:27:13;;;;;;;7.63;1.95;;;;;;;14.77;56.14;100460.41;5113993;28;20047;-44
2022/06/29 03:29:38;;;;;;;5.03;1.42;;;;;;;14.72;56.49;100452.97;5113867;28;20087;-44
2022/06/29 03:32:04;;;;;;;7.13;1.45;;;;;;;14.74;56.06;100448.16;5112369;28;20028;-45
2022/06/29 03:34:30;;;;;;;4.75;1.40;;;;;;;14.89;56.38;100474.84;5112788;28;20329;-44
2022/06/29 03:36:56;;;;;;;4.80;1.48;;;;;;;14.95;56.12;100470.44;5114080;28;20114;-46
2022/06/29 03:39:21;;;;;;;3.03;1.42;;;;;;;14.90;56.81;100471.94;5113742;28;20036;-47
2022/06/29 03:41:47;;;;;;;4.70;1.20;;;;;;;14.73;57.06;100460.03;5113701;28;20055;-47
2022/06/29 03:44:13;;;;;;;5.38;1.40;;;;;;;14.81;57.31;100462.44;5113819;28;20485;-47
2022/06/29 03:46:39;;;;;;;5.75;1.48;;;;;;;14.74;56.83;100450.84;5113423;28;20180;-46
2022/06/29 03:49:05;;;;;;;4.57;1.10;;;;;;;14.89;56.36;100464.03;5078194;28;20114;-44
2022/06/29 03:51:30;;;;;;;4.10;1.13;;;;;;;14.80;57.05;100460.81;5113727;28;20110;-44
2022/06/29 03:53:56;;;;;;;3.75;1.20;;;;;;;14.67;57.25;100437.41;5113597;28;20464;-44
2022/06/29 03:56:22;;;;;;;3.70;1.27;;;;;;;14.82;57.37;100469.53;5113401;28;20468;-46
2022/06/29 03:58:47;;;;;;;3.28;1.50;;;;;;;14.83;57.38;100463.03;5113524;28;20139;-46
2022/06/29 04:01:13;;;;;;;3.15;1.52;;;;;;;14.82;57.90;100472.22;5111750;28;20437;-46
2022/06/29 04:03:39;;;;;;;6.53;1.30;;;;;;;14.52;58.40;100445.81;5111951;28;20340;-45
2022/06/29 04:06:06;;;;;;;7.38;1.20;;;;;;;14.74;58.11;100472.47;5111967;28;20460;-44
2022/06/29 04:08:32;;;;;;;3.30;1.40;;;;;;;14.70;58.26;100455.88;5114732;28;20020;-44
2022/06/29 04:10:57;;;;;;;4.20;1.27;;;;;;;14.81;58.02;100467.84;5096333;28;20452;-44
2022/06/29 04:13:23;;;;;;;4.30;1.35;;;;;;;14.82;57.95;100472.22;5114924;28;20057;-44
2022/06/29 04:15:49;;;;;;;5.05;1.13;;;;;;;14.75;58.13;100451.72;5115822;28;20413;-44
2022/06/29 04:18:15;;;;;;;4.78;1.13;;;;;;;14.84;58.30;100467.41;5115836;28;20043;-45
2022/06/29 04:23:26;;;;;;;5.78;1.30;;;;;;;14.57;57.87;100428.13;5111988;28;20168;-44
2022/06/29 04:25:52;;;;;;;4.70;1.00;;;;;;;14.91;57.84;100472.75;5113807;28;20499;-45
2022/06/29 04:28:18;;;;;;;3.72;1.50;;;;;;;14.72;58.94;100452.97;5112752;28;20471;-43
2022/06/29 04:30:44;;;;;;;5.93;1.45;;;;;;;14.84;58.69;100471.97;5113763;28;20468;-44
2022/06/29 04:33:09;;;;;;;7.13;1.50;;;;;;;14.86;59.07;100475.31;5112000;28;20180;-44
2022/06/29 04:35:35;;;;;;;3.05;1.20;;;;;;;14.73;58.45;100442.97;5112343;28;20223;-44
2022/06/29 04:38:01;;;;;;;4.72;1.20;;;;;;;14.94;58.58;100466.91;5111669;28;20073;-46
2022/06/29 04:40:27;;;;;;;3.25;1.17;;;;;;;14.86;58.59;100449.09;5111352;28;20073;-44
2022/06/29 04:42:53;;;;;;;9.32;1.25;;;;;;;14.97;58.75;100468.31;5113011;27;20073;-44
2022/06/29 04:48:05;;;;;;;4.30;1.30;;;;;;;14.87;59.62;100450.72;5125914;27;20118;-45
2022/06/29 04:50:30;;;;;;;6.30;1.38;;;;;;;14.85;60.63;100452.84;5112614;28;20104;-45
2022/06/29 04:52:56;;;;;;;4.70;1.38;;;;;;;14.81;60.43;100456.22;5110900;28;20446;-43
2022/06/29 04:55:25;;;;;;;4.47;1.25;;;;;;;14.78;60.52;100457.47;5111241;28;20032;-47
2022/06/29 04:57:51;;;;;;;2.97;1.02;;;;;;;14.84;60.58;100455.75;5110867;28;20421;-44
2022/06/29 05:00:17;;;;;;;5.88;1.23;;;;;;;14.76;61.15;100443.34;5093835;28;20076;-44
2022/06/29 05:02:43;;;;;;;3.65;1.30;;;;;;;14.78;61.14;100446.66;5112558;28;20028;-44
2022/06/29 05:05:09;;;;;;;3.72;1.42;;;;;;;14.83;60.79;100441.41;5111074;28;20472;-46
2022/06/29 05:07:35;;;;;;;6.88;1.35;;;;;;;14.84;60.97;100445.78;5113420;28;20379;-44
2022/06/29 05:10:01;;;;;;;2.78;1.10;;;;;;;14.46;60.50;100371.03;5112824;28;20122;-44
2022/06/29 05:12:26;;;;;;;2.95;1.00;;;;;;;14.94;60.36;100445.28;5112005;28;20079;-44
2022/06/29 05:14:52;;;;;;;4.63;1.35;;;;;;;14.91;61.30;100451.13;5113634;28;20032;-44
2022/06/29 05:17:18;;;;;;;9.50;1.35;;;;;;;15.00;60.49;100448.97;5112327;28;20328;-44
2022/06/29 05:19:44;;;;;;;3.13;1.10;;;;;;;14.93;60.87;100429.25;5110440;28;20165;-45
2022/06/29 05:22:10;;;;;;;5.38;1.40;;;;;;;15.02;61.02;100436.84;5111502;28;20040;-45
2022/06/29 05:24:36;;;;;;;3.85;1.65;;;;;;;14.69;60.72;100389.38;5110649;28;20031;-44
2022/06/29 05:27:01;;;;;;;4.78;1.30;;;;;;;15.14;60.32;100449.66;5112058;28;20051;-44
2022/06/29 05:29:27;;;;;;;6.85;1.15;;;;;;;15.05;60.21;100425.59;5093486;28;20047;-44
2022/06/29 05:31:53;;;;;;;3.38;1.20;;;;;;;14.86;60.78;100386.91;5111962;28;20035;-44
2022/06/29 05:34:19;;;;;;;9.68;1.70;;;;;;;15.25;61.11;100448.91;5110588;28;20032;-44
2022/06/29 05:36:44;;;;;;;5.85;1.38;;;;;;;15.31;60.86;100445.31;5111929;28;20402;-44
2022/06/29 05:39:10;;;;;;;4.25;1.25;;;;;;;15.37;60.61;100443.56;5093386;28;20114;-44
2022/06/29 05:41:36;;;;;;;3.13;1.08;;;;;;;15.31;61.76;100439.91;5110221;28;20032;-44
2022/06/29 05:44:04;;;;;;;3.72;0.88;;;;;;;15.28;61.90;100433.06;5110437;28;20036;-44
2022/06/29 05:46:31;;;;;;;5.78;1.23;;;;;;;15.27;62.63;100441.41;5111845;28;20035;-44
2022/06/29 05:48:58;;;;;;;4.50;1.23;;;;;;;15.28;62.88;100434.91;5110248;28;20027;-44
2022/06/29 05:51:24;;;;;;;3.13;1.02;;;;;;;15.39;63.09;100450.41;5112147;28;20416;-44
2022/06/29 05:53:50;;;;;;;5.47;1.40;;;;;;;15.41;62.63;100434.75;5110321;28;20063;-45
2022/06/29 05:56:16;;;;;;;8.52;1.40;;;;;;;15.32;64.29;100448.84;5112039;28;20073;-45
2022/06/29 05:58:42;;;;;;;4.20;1.30;;;;;;;15.28;64.20;100437.63;5111479;28;20038;-44
2022/06/29 06:01:09;;;;;;;7.65;1.30;;;;;;;15.34;64.62;100433.19;5093085;28;20034;-44
2022/06/29 06:03:36;;;;;;;6.05;1.27;;;;;;;15.41;64.50;100429.34;5111686;28;20387;-44
2022/06/29 06:06:03;;;;;;;5.22;1.15;;;;;;;15.49;64.10;100430.94;5111945;28;20031;-45
2022/06/29 06:08:29;;;;;;;5.88;1.08;;;;;;;15.76;62.82;100436.03;5112314;28;20042;-44
2022/06/29 06:10:54;;;;;;;6.95;1.27;;;;;;;15.80;62.99;100426.41;5112343;28;20118;-45
2022/06/29 06:13:20;;;;;;;3.28;1.38;;;;;;;16.03;62.71;100447.34;5112261;28;20124;-44
2022/06/29 06:15:46;;;;;;;1.92;0.98;;;;;;;16.03;63.20;100436.53;5110344;28;20449;-44
2022/06/29 06:18:12;;;;;;;4.68;1.05;;;;;;;16.00;63.02;100445.09;5111719;28;20047;-44
2022/06/29 06:20:38;;;;;;;7.00;1.23;;;;;;;15.95;63.36;100444.94;5109878;28;20024;-44
2022/06/29 06:23:04;;;;;;;5.38;1.52;;;;;;;15.99;63.45;100451.56;5110264;28;20039;-45
2022/06/29 06:25:31;;;;;;;5.40;1.50;;;;;;;16.08;62.79;100455.59;5110490;28;20028;-43
2022/06/29 06:27:57;;;;;;;4.82;1.05;;;;;;;16.05;62.99;100432.50;5112140;28;20302;-44
2022/06/29 06:30:22;;;;;;;4.55;1.30;;;;;;;16.16;62.73;100446.34;5093595;28;20032;-43
2022/06/29 06:32:48;;;;;;;5.40;1.63;;;;;;;16.22;62.33;100438.09;5111553;28;20084;-45
2022/06/29 06:35:15;;;;;;;5.95;1.23;;;;;;;16.17;63.22;100426.31;5115466;28;20070;-46
2022/06/29 06:37:42;;;;;;;2.35;0.80;;;;;;;16.08;63.34;100423.09;5115315;28;20031;-45
2022/06/29 06:42:55;;;;;;;7.95;1.35;;;;;;;16.28;63.71;100449.06;5113805;28;20494;-44
2022/06/29 06:45:21;;;;;;;6.63;0.82;;;;;;;16.16;63.66;100436.31;5096847;28;20039;-46
2022/06/29 06:47:46;;;;;;;5.45;1.20;;;;;;;16.22;63.75;100450.81;5115245;28;20114;-46
2022/06/29 06:50:12;;;;;;;3.78;0.80;;;;;;;16.28;64.13;100446.34;5115276;28;20031;-45
2022/06/29 06:52:38;;;;;;;4.50;1.00;;;;;;;16.20;64.25;100451.06;5115080;28;20035;-49
2022/06/29 06:55:04;;;;;;;4.05;1.10;;;;;;;16.06;65.14;100442.31;5113226;28;20476;-44
2022/06/29 06:57:30;;;;;;;4.18;1.02;;;;;;;16.12;65.06;100445.97;5114720;27;20036;-44
2022/06/29 06:59:55;;;;;;;5.72;0.93;;;;;;;16.19;65.52;100456.69;5114984;28;20027;-47
2022/06/29 07:02:21;;;;;;;1.20;0.50;;;;;;;16.08;65.74;100436.63;5113468;28;20484;-44
2022/06/29 07:04:47;;;;;;;2.92;0.60;;;;;;;16.14;65.58;100459.25;5113347;28;20087;-44
2022/06/29 07:07:14;;;;;;;2.35;0.60;;;;;;;16.14;66.00;100446.56;5115127;28;20034;-45
2022/06/29 07:09:40;;;;;;;2.35;0.98;;;;;;;16.24;65.65;100446.81;5112780;28;20055;-45
2022/06/29 07:12:06;;;;;;;2.42;0.80;;;;;;;16.40;65.54;100461.59;5115171;28;20072;-45
2022/06/29 07:14:32;;;;;;;4.07;0.80;;;;;;;16.58;65.02;100459.84;5114135;28;20039;-46
2022/06/29 07:16:58;;;;;;;2.70;0.98;;;;;;;16.86;64.73;100459.19;5113957;28;20031;-46
2022/06/29 07:19:24;;;;;;;3.67;0.60;;;;;;;16.73;64.47;100421.44;5114264;28;20452;-47
2022/06/29 07:21:50;;;;;;;2.67;0.60;;;;;;;16.94;64.51;100456.16;5116567;28;20494;-44
2022/06/29 07:24:16;;;;;;;3.03;0.85;;;;;;;16.92;64.50;100457.41;5114961;28;20035;-46
2022/06/29 07:26:41;;;;;;;5.35;0.98;;;;;;;16.93;63.93;100451.75;5115955;28;20026;-49
2022/06/29 07:29:07;;;;;;;3.63;0.93;;;;;;;16.92;63.92;100438.44;5116199;28;20379;-46
2022/06/29 07:31:33;;;;;;;1.85;0.70;;;;;;;16.88;63.99;100450.81;5116037;28;20088;-46
2022/06/29 07:33:59;;;;;;;1.15;0.47;;;;;;;16.78;64.38;100454.09;5115061;28;20444;-44
2022/06/29 07:36:26;;;;;;;5.18;0.68;;;;;;;16.84;63.97;100453.19;5112507;28;20107;-44
2022/06/29 07:38:52;;;;;;;1.63;0.60;;;;;;;16.76;64.01;100443.47;5112225;28;20031;-44
2022/06/29 07:41:18;;;;;;;4.63;0.70;;;;;;;16.70;64.56;100454.47;5113669;28;20030;-44
2022/06/29 07:43:44;;;;;;;1.48;0.73;;;;;;;16.57;65.25;100460.94;5112576;28;20066;-44
2022/06/29 07:46:10;;;;;;;1.23;0.68;;;;;;;16.53;65.39;100452.44;5112701;28;20130;-44
2022/06/29 07:48:36;;;;;;;1.90;1.08;;;;;;;16.66;65.46;100454.09;5113370;28;20032;-44
2022/06/29 07:51:02;;;;;;;4.80;0.93;;;;;;;16.80;65.06;100447.38;5116564;28;20024;-44
2022/06/29 07:53:29;;;;;;;2.97;0.80;;;;;;;16.88;64.58;100456.25;5115928;28;20027;-44
2022/06/29 07:55:55;;;;;;;3.58;1.00;;;;;;;16.99;63.92;100455.41;5113627;28;20032;-45
2022/06/29 07:58:21;;;;;;;1.35;0.80;;;;;;;16.57;64.76;100391.25;5113833;28;20031;-44
2022/06/29 08:00:47;;;;;;;2.25;0.80;;;;;;;17.01;64.12;100443.28;5114617;28;20047;-44
2022/06/29 08:03:14;;;;;;;4.93;1.40;;;;;;;17.16;63.28;100440.09;5112109;28;20027;-48
2022/06/29 08:05:40;;;;;;;3.47;1.23;;;;;;;17.17;63.04;100428.16;5117785;28;20035;-48
2022/06/29 08:08:06;;;;;;;4.88;1.35;;;;;;;17.27;63.14;100438.41;5125982;28;20023;-49
2022/06/29 08:10:33;;;;;;;3.53;1.45;;;;;;;17.27;63.11;100435.69;5123929;28;20121;-46
2022/06/29 08:12:59;;;;;;;2.67;1.30;;;;;;;17.13;63.64;100445.16;5118842;27;20027;-45
2022/06/29 08:15:26;;;;;;;6.57;1.65;;;;;;;17.08;63.81;100443.16;5116064;28;20114;-44
2022/06/29 08:17:52;;;;;;;4.75;1.30;;;;;;;17.09;63.53;100442.09;5115438;28;20034;-45
2022/06/29 08:20:19;;;;;;;5.47;1.65;;;;;;;17.18;63.92;100448.81;5115687;27;20117;-44
2022/06/29 08:22:44;;;;;;;3.80;1.50;;;;;;;17.21;64.34;100442.91;5115050;28;20045;-44
2022/06/29 08:25:11;;;;;;;4.50;1.90;;;;;;;17.40;64.01;100437.31;5114418;28;20037;-46
2022/06/29 08:27:38;;;;;;;4.40;1.23;;;;;;;17.64;63.12;100445.41;5115768;28;20038;-46
2022/06/29 08:30:05;;;;;;;3.95;1.20;;;;;;;17.72;62.93;100428.75;5117547;28;20138;-44
2022/06/29 08:32:30;;;;;;;3.17;1.48;;;;;;;17.72;63.25;100423.31;5117441;28;20051;-45
2022/06/29 08:35:01;;;;;;;4.05;1.30;;;;;;;18.01;62.16;100420.59;5114663;28;20103;-47
2022/06/29 08:37:28;;;;;;;5.25;1.38;;;;;;;18.31;61.30;100413.00;5113489;28;20028;-45
2022/06/29 08:39:54;;;;;;;3.35;1.40;;;;;;;18.43;60.45;100417.53;5113149;28;20030;-45
2022/06/29 08:42:22;;;;;;;3.80;1.25;;;;;;;18.38;60.78;100467.19;5111719;28;20059;-45
2022/06/29 08:44:49;;;;;;;3.05;1.20;;;;;;;18.22;61.35;100468.00;5110781;28;20134;-44
2022/06/29 08:47:15;;;;;;;3.20;1.40;;;;;;;18.01;62.70;100477.66;5112475;28;20115;-44
2022/06/29 08:49:41;;;;;;;2.60;0.88;;;;;;;17.75;62.67;100460.84;5112303;28;20082;-44
2022/06/29 08:52:09;;;;;;;1.73;0.63;;;;;;;17.78;62.43;100487.53;5110686;28;20532;-44
2022/06/29 08:54:39;;;;;;;1.83;0.70;;;;;;;17.64;63.32;100483.44;5110609;28;20038;-45
2022/06/29 08:57:06;;;;;;;1.58;0.47;;;;;;;17.53;63.78;100480.50;5111219;28;20036;-46
2022/06/29 08:59:35;;;;;;;2.05;0.60;;;;;;;17.42;64.13;100476.75;5111983;28;20023;-45
2022/06/29 09:02:01;;;;;;;1.27;0.70;;;;;;;17.28;64.29;100453.63;5112197;28;20032;-45
2022/06/29 09:04:28;;;;;;;1.08;0.65;;;;;;;17.02;65.54;100425.94;5112086;28;20104;-44
2022/06/29 09:06:54;;;;;;;4.32;0.60;;;;;;;17.08;66.57;100382.63;5111974;28;20027;-44
2022/06/29 09:09:21;;;;;;;2.85;1.00;;;;;;;17.13;67.82;100370.00;5110478;28;20079;-45
2022/06/29 09:11:50;;;;;;;2.80;1.10;;;;;;;17.01;68.69;100442.44;5112163;28;20019;-44
2022/06/29 09:14:20;;;;;;;2.42;1.30;;;;;;;16.97;68.92;100442.09;5111855;28;20050;-44
2022/06/29 09:16:53;;;;;;;4.00;1.05;;;;;;;17.06;69.15;100453.41;5112287;28;20440;-45
2022/06/29 09:19:21;;;;;;;2.05;0.70;;;;;;;17.00;69.05;100449.75;5110994;28;20035;-45
2022/06/29 09:21:49;;;;;;;2.97;1.05;;;;;;;16.99;69.91;100471.69;5110451;28;20101;-44
2022/06/29 09:24:16;;;;;;;5.57;0.82;;;;;;;17.01;69.52;100454.16;5111564;28;20140;-47
2022/06/29 09:26:42;;;;;;;2.75;1.10;;;;;;;17.12;69.29;100455.16;5111401;28;20027;-44
2022/06/29 09:29:20;;;;;;;2.78;0.90;;;;;;;17.25;68.52;100447.84;5109897;28;20038;-44
2022/06/29 09:32:07;;;;;;;2.92;0.82;;;;;;;17.36;68.78;100455.16;5110071;28;20027;-43
2022/06/29 09:34:36;;;;;;;1.90;0.73;;;;;;;17.42;67.82;100467.75;5110259;28;20317;-47
2022/06/29 09:37:03;;;;;;;1.75;0.85;;;;;;;17.42;67.29;100463.19;5111556;28;20062;-45
2022/06/29 09:39:35;;;;;;;3.03;0.80;;;;;;;17.34;67.75;100463.53;5109992;28;20434;-45
2022/06/29 09:42:02;;;;;;;2.40;0.88;;;;;;;17.72;66.94;100466.78;5111398;28;20039;-44
2022/06/29 09:44:28;;;;;;;4.20;1.13;;;;;;;18.21;64.21;100456.31;5109916;28;20074;-45
2022/06/29 09:46:56;;;;;;;6.68;1.38;;;;;;;18.70;62.91;100459.31;5111571;28;20071;-48
2022/06/29 09:49:25;;;;;;;5.50;1.48;;;;;;;19.45;61.28;100456.34;5111709;28;20386;-46
2022/06/29 09:51:56;;;;;;;4.80;1.30;;;;;;;20.30;59.59;100460.28;5111946;28;20352;-45
2022/06/29 09:54:25;;;;;;;7.45;1.52;;;;;;;20.56;57.49;100462.41;5111693;28;20081;-45
2022/06/29 09:56:54;;;;;;;4.43;1.30;;;;;;;21.77;54.46;100451.72;5111759;28;20510;-45
2022/06/29 10:02:34;;;;;;;4.93;1.35;;;;;;;23.18;50.73;100423.03;5111916;28;20060;-45
2022/06/29 10:05:04;;;;;;;3.28;1.48;;;;;;;21.58;50.52;100443.16;5111646;28;20455;-45
2022/06/29 10:07:31;;;;;;;5.95;1.67;;;;;;;22.46;49.62;100445.00;5094605;28;20051;-45
2022/06/29 10:09:58;;;;;;;6.88;1.77;;;;;;;22.82;46.77;100444.97;5115971;28;20075;-45
2022/06/29 10:15:52;;;;;;;3.17;1.30;;;;;;;23.85;43.11;100426.31;5103953;28;20028;-49
2022/06/29 10:18:41;;;;;;;3.05;1.02;;;;;;;24.08;42.03;100416.56;5118524;28;20172;-51
2022/06/29 10:21:20;;;;;;;4.05;1.60;;;;;;;23.81;43.04;100438.97;5118500;28;20038;-50
2022/06/29 10:23:52;;;;;;;4.90;1.10;;;;;;;23.51;44.60;100431.66;5115261;28;20068;-46
2022/06/29 10:26:39;;;;;;;2.70;1.10;;;;;;;22.81;44.69;100435.13;5115756;28;20461;-46
2022/06/29 10:29:26;;;;;;;4.90;1.27;;;;;;;22.80;43.94;100428.00;5115511;28;20034;-45
2022/06/29 10:31:59;;;;;;;2.60;1.00;;;;;;;22.96;46.26;100420.59;5115197;28;20020;-44
2022/06/29 10:35:05;;;;;;;3.47;1.10;;;;;;;23.57;44.12;100425.06;5116084;28;20111;-49
2022/06/29 10:37:26;;;;;;;2.92;1.17;;;;;;;23.41;44.28;100410.59;5100307;28;20032;-45
2022/06/29 10:39:53;;;;;;;3.80;1.23;;;;;;;23.39;43.75;100421.84;5113663;28;20073;-45
2022/06/29 10:45:24;;;;;;;3.55;1.15;;;;;;;22.57;46.13;100402.84;5114243;28;20055;-46
2022/06/29 10:48:12;;;;;;;4.13;1.08;;;;;;;22.53;44.41;100433.78;5114258;28;20447;-47
2022/06/29 10:50:39;;;;;;;4.80;1.08;;;;;;;22.40;45.71;100421.47;5102111;28;20027;-46
2022/06/29 10:53:09;;;;;;;5.13;1.15;;;;;;;22.54;44.58;100422.56;5113359;28;20019;-47
2022/06/29 10:55:39;;;;;;;3.22;0.80;;;;;;;22.74;44.86;100427.19;5114719;28;20023;-46
2022/06/29 10:58:05;;;;;;;2.67;1.30;;;;;;;22.80;43.62;100426.09;5115900;28;20118;-53
2022/06/29 11:00:35;;;;;;;5.25;1.48;;;;;;;23.06;42.84;100398.66;5116786;28;20031;-47
2022/06/29 11:03:13;;;;;;;3.88;1.20;;;;;;;23.64;41.88;100405.56;5114634;28;20058;-45
2022/06/29 11:14:03;;;;;;;3.20;1.10;;;;;;;23.74;42.55;100419.22;5098350;28;20119;-45
2022/06/29 11:16:36;;;;;;;8.48;1.75;;;;;;;22.98;42.27;100423.88;5114619;28;20035;-45
2022/06/29 11:19:04;;;;;;;5.63;1.73;;;;;;;22.69;43.59;100427.19;5114109;28;20028;-45
2022/06/29 11:21:30;;;;;;;4.50;1.02;;;;;;;22.99;42.69;100426.34;5112717;28;20119;-45
2022/06/29 11:23:58;;;;;;;4.80;1.25;;;;;;;23.91;40.09;100380.47;5114168;28;20032;-46
2022/06/29 11:26:27;;;;;;;2.67;1.10;;;;;;;25.90;38.28;100423.44;5112191;28;20061;-45
2022/06/29 11:28:53;;;;;;;2.47;1.17;;;;;;;26.32;36.20;100413.47;5112948;28;20059;-45
2022/06/29 11:31:19;;;;;;;4.47;1.63;;;;;;;25.46;38.15;100424.59;5114147;28;20077;-45
2022/06/29 11:33:49;;;;;;;3.50;1.38;;;;;;;25.55;37.75;100402.75;5112869;28;20031;-46
2022/06/29 11:36:18;;;;;;;3.13;1.42;;;;;;;26.16;37.15;100423.91;5113947;28;20114;-46
2022/06/29 11:38:46;;;;;;;5.90;1.50;;;;;;;26.59;36.25;100411.91;5114284;27;20085;-45
2022/06/29 11:41:14;;;;;;;6.10;1.75;;;;;;;25.92;36.36;100415.75;5114252;28;20027;-45
2022/06/29 11:43:40;;;;;;;3.80;1.33;;;;;;;25.62;37.21;100397.72;5115300;28;20043;-45
2022/06/29 11:46:18;;;;;;;7.05;1.65;;;;;;;25.53;36.88;100403.06;5114786;28;20480;-46
2022/06/29 11:51:36;;;;;;;5.40;1.30;;;;;;;24.14;39.25;100401.72;5113545;28;20446;-46
2022/06/29 11:54:06;;;;;;;5.25;1.40;;;;;;;24.31;38.86;100395.81;5112831;28;20473;-45
2022/06/29 11:56:33;;;;;;;6.07;1.73;;;;;;;24.34;39.50;100394.41;5113636;28;20537;-46
2022/06/29 11:59:05;;;;;;;8.65;1.50;;;;;;;24.02;38.72;100408.66;5113646;28;20070;-45